createdAt,value
2023-03-14T00:00:44.556Z,61.50
2023-03-14T00:03:17.727Z,61.57
2023-03-14T00:05:50.950Z,61.72
2023-03-14T00:08:25.945Z,61.85
2023-03-14T00:10:59.882Z,61.91
2023-03-14T00:13:33.109Z,61.85
2023-03-14T00:16:08.335Z,61.96
2023-03-14T00:18:42.462Z,61.95
2023-03-14T00:21:16.019Z,62.03
2023-03-14T00:23:49.208Z,62.10
2023-03-14T00:26:23.657Z,61.94
2023-03-14T00:28:57.128Z,61.96
2023-03-14T00:31:30.456Z,61.97
2023-03-14T00:34:03.792Z,61.92
2023-03-14T00:36:37.806Z,62.08
2023-03-14T00:39:11.986Z,61.80
2023-03-14T00:41:45.221Z,61.86
2023-03-14T00:44:18.500Z,62.10
2023-03-14T00:46:51.722Z,62.07
2023-03-14T00:49:25.323Z,62.19
2023-03-14T00:51:58.546Z,62.29
2023-03-14T00:54:31.762Z,62.45
2023-03-14T00:57:05.095Z,62.53
2023-03-14T00:59:38.798Z,62.60
2023-03-14T01:02:12.004Z,62.69
2023-03-14T01:04:45.153Z,62.76
2023-03-14T01:07:18.820Z,62.99
2023-03-14T01:12:36.146Z,63.36
2023-03-14T01:15:11.082Z,63.47
2023-03-14T01:17:44.961Z,63.63
2023-03-14T01:20:19.357Z,63.60
2023-03-14T01:22:52.317Z,63.81
2023-03-14T01:25:25.377Z,63.85
2023-03-14T01:27:58.671Z,63.99
2023-03-14T01:30:32.225Z,64.44
2023-03-14T01:33:08.624Z,64.81
2023-03-14T01:35:41.709Z,65.49
2023-03-14T01:38:14.951Z,65.90
2023-03-14T01:40:48.174Z,66.10
2023-03-14T01:43:24.736Z,66.53
2023-03-14T01:46:28.524Z,67.24
2023-03-14T01:49:08.684Z,67.46
2023-03-14T01:51:47.364Z,68.64
2023-03-14T01:54:25.506Z,68.76
2023-03-14T01:57:02.653Z,68.92
2023-03-14T01:59:36.853Z,69.18
2023-03-14T02:02:12.656Z,70.11
2023-03-14T02:04:46.321Z,70.25
2023-03-14T02:07:25.409Z,70.63
2023-03-14T02:10:00.312Z,70.89
2023-03-14T02:12:36.140Z,71.40
2023-03-14T02:15:15.115Z,71.50
2023-03-14T02:18:00.056Z,71.76
2023-03-14T02:20:41.311Z,72.47
2023-03-14T02:23:15.545Z,72.42
2023-03-14T02:25:54.052Z,73.19
2023-03-14T02:28:27.682Z,73.36
2023-03-14T02:31:02.502Z,73.80
2023-03-14T02:33:37.726Z,73.95
2023-03-14T02:36:14.457Z,73.83
2023-03-14T02:38:51.681Z,73.61
2023-03-14T02:41:25.188Z,73.81
2023-03-14T02:43:59.898Z,73.91
2023-03-14T02:46:33.640Z,74.17
2023-03-14T02:49:09.022Z,74.32
2023-03-14T02:51:45.664Z,74.45
2023-03-14T02:54:20.954Z,74.42
2023-03-14T02:56:54.356Z,74.81
2023-03-14T02:59:29.498Z,74.94
2023-03-14T03:02:04.093Z,75.15
2023-03-14T03:04:37.444Z,75.43
2023-03-14T03:07:10.742Z,75.52
2023-03-14T03:09:43.673Z,75.76
2023-03-14T03:12:16.965Z,76.15
2023-03-14T03:14:50.393Z,76.42
2023-03-14T03:17:26.521Z,76.58
2023-03-14T03:20:01.566Z,76.62
2023-03-14T03:22:35.159Z,76.79
2023-03-14T03:25:10.618Z,76.80
2023-03-14T03:27:43.915Z,76.76
2023-03-14T03:30:18.714Z,77.03
2023-03-14T03:32:52.360Z,77.05
2023-03-14T03:35:25.391Z,77.12
2023-03-14T03:38:00.096Z,77.26
2023-03-14T03:40:34.018Z,77.44
2023-03-14T03:43:07.198Z,77.50
2023-03-14T03:45:41.818Z,77.58
2023-03-14T03:48:16.434Z,77.64
2023-03-14T03:50:50.276Z,77.70
2023-03-14T03:53:33.099Z,77.78
2023-03-14T03:55:59.713Z,77.86
2023-03-14T03:58:32.909Z,77.84
2023-03-14T04:01:06.260Z,77.91
2023-03-14T04:03:40.295Z,77.95
2023-03-14T04:06:15.290Z,77.93
2023-03-14T04:08:50.072Z,77.98
2023-03-14T04:11:43.184Z,77.96
2023-03-14T04:14:30.180Z,78.07
2023-03-14T04:17:10.727Z,78.16
2023-03-14T04:19:43.958Z,78.31
2023-03-14T04:22:17.165Z,78.43
2023-03-14T04:24:52.193Z,78.53
2023-03-14T04:27:26.511Z,78.60
2023-03-14T04:30:00.550Z,78.57
2023-03-14T04:32:50.543Z,78.59
2023-03-14T04:35:25.715Z,78.72
2023-03-14T04:38:00.578Z,78.92
2023-03-14T04:40:35.224Z,78.90
2023-03-14T04:43:11.250Z,78.97
2023-03-14T04:45:46.483Z,79.07
2023-03-14T04:48:20.341Z,79.15
2023-03-14T04:50:54.174Z,79.34
2023-03-14T04:53:27.468Z,79.35
2023-03-14T04:56:02.252Z,79.53
2023-03-14T04:58:37.026Z,79.56
2023-03-14T05:01:11.264Z,79.73
2023-03-14T05:03:49.011Z,79.88
2023-03-14T05:06:23.850Z,79.99
2023-03-14T05:09:06.203Z,80.06
2023-03-14T05:11:57.026Z,80.23
2023-03-14T05:14:40.806Z,80.35
2023-03-14T05:17:17.812Z,80.52
2023-03-14T05:19:58.158Z,80.48
2023-03-14T05:22:35.645Z,80.52
2023-03-14T05:25:16.047Z,80.57
2023-03-14T05:28:00.029Z,80.62
2023-03-14T05:30:46.868Z,80.70
2023-03-14T05:33:27.266Z,80.74
2023-03-14T05:36:14.918Z,80.87
2023-03-14T05:38:49.487Z,81.18
2023-03-14T05:44:06.214Z,81.77
2023-03-14T05:46:49.522Z,81.79
2023-03-14T05:49:34.986Z,82.06
2023-03-14T05:52:18.388Z,82.15
2023-03-14T05:54:55.645Z,82.31
2023-03-14T05:57:48.537Z,82.25
2023-03-14T06:00:29.404Z,82.02
2023-03-14T06:03:08.317Z,82.10
2023-03-14T06:05:42.585Z,82.07
2023-03-14T06:08:18.033Z,81.88
2023-03-14T06:10:52.404Z,81.46
2023-03-14T06:13:27.436Z,81.23
2023-03-14T06:16:00.820Z,81.21
2023-03-14T06:18:37.729Z,81.04
2023-03-14T06:21:12.964Z,80.80
2023-03-14T06:23:46.282Z,80.83
2023-03-14T06:26:19.834Z,80.78
2023-03-14T06:28:55.798Z,80.35
2023-03-14T06:31:29.169Z,79.83
2023-03-14T06:34:10.275Z,79.13
2023-03-14T06:36:57.474Z,79.20
2023-03-14T06:39:31.583Z,79.30
2023-03-14T06:42:08.028Z,79.44
2023-03-14T06:44:43.402Z,79.72
2023-03-14T06:47:17.446Z,80.05
2023-03-14T06:49:54.668Z,79.96
2023-03-14T06:52:30.275Z,79.98
2023-03-14T06:55:03.823Z,79.81
2023-03-14T06:57:38.645Z,79.95
2023-03-14T07:00:15.821Z,80.08
2023-03-14T07:02:49.728Z,80.56
2023-03-14T07:05:24.805Z,81.18
2023-03-14T07:07:58.509Z,81.41
2023-03-14T07:10:35.716Z,81.51
2023-03-14T07:13:09.246Z,81.66
2023-03-14T07:15:44.438Z,81.58
2023-03-14T07:18:17.897Z,81.62
2023-03-14T07:20:51.692Z,81.67
2023-03-14T07:23:25.634Z,81.54
2023-03-14T07:26:00.041Z,81.69
2023-03-14T07:28:37.658Z,81.23
2023-03-14T07:31:12.852Z,81.17
2023-03-14T07:33:46.897Z,81.20
2023-03-14T07:36:22.302Z,80.81
2023-03-14T07:38:55.731Z,80.51
2023-03-14T07:41:39.955Z,80.30
2023-03-14T07:44:30.659Z,79.56
2023-03-14T07:47:08.109Z,79.35
2023-03-14T07:49:41.890Z,79.16
2023-03-14T07:52:15.398Z,79.25
2023-03-14T07:54:48.705Z,78.80
2023-03-14T07:57:22.154Z,77.55
2023-03-14T07:59:55.438Z,77.53
2023-03-14T08:02:28.927Z,77.73
2023-03-14T08:05:02.374Z,77.60
2023-03-14T08:07:39.036Z,77.65
2023-03-14T08:10:15.780Z,76.75
2023-03-14T08:12:49.206Z,77.34
2023-03-14T08:15:22.865Z,77.29
2023-03-14T08:17:56.642Z,76.81
2023-03-14T08:20:35.594Z,77.09
2023-03-14T08:23:09.005Z,77.27
2023-03-14T08:25:42.651Z,77.67
2023-03-14T08:28:16.126Z,76.83
2023-03-14T08:30:49.646Z,77.22
2023-03-14T08:33:23.084Z,76.76
2023-03-14T08:38:43.753Z,75.25
2023-03-14T08:41:20.007Z,75.43
2023-03-14T08:43:53.248Z,75.35
2023-03-14T08:46:26.561Z,74.18
2023-03-14T08:48:59.778Z,75.40
2023-03-14T08:51:36.153Z,74.98
2023-03-14T08:54:12.104Z,75.14
2023-03-14T08:56:45.258Z,74.66
2023-03-14T08:59:19.383Z,74.10
2023-03-14T09:01:52.868Z,74.36
2023-03-14T09:04:26.164Z,74.27
2023-03-14T09:06:59.969Z,73.90
2023-03-14T09:09:36.591Z,73.12
2023-03-14T09:12:10.249Z,73.73
2023-03-14T09:14:43.477Z,73.82
2023-03-14T09:17:16.820Z,72.86
2023-03-14T09:19:49.971Z,72.44
2023-03-14T09:22:23.511Z,71.73
2023-03-14T09:24:57.786Z,71.48
2023-03-14T09:27:31.060Z,71.44
2023-03-14T09:30:09.803Z,72.14
2023-03-14T09:32:42.930Z,71.56
2023-03-14T09:35:16.162Z,69.73
2023-03-14T09:37:49.689Z,70.09
2023-03-14T09:40:24.886Z,70.15
2023-03-14T09:42:59.948Z,68.90
2023-03-14T09:45:39.202Z,68.86
2023-03-14T09:48:17.277Z,68.31
2023-03-14T09:50:53.904Z,67.55
2023-03-14T09:53:30.585Z,67.78
2023-03-14T09:56:09.539Z,66.55
2023-03-14T09:58:45.185Z,66.76
2023-03-14T10:01:21.616Z,66.13
2023-03-14T10:03:58.241Z,66.47
2023-03-14T10:06:36.855Z,66.87
2023-03-14T10:09:13.765Z,66.26
2023-03-14T10:11:47.695Z,66.09
2023-03-14T10:14:32.674Z,66.48
2023-03-14T10:17:14.695Z,67.12
2023-03-14T10:19:59.332Z,67.22
2023-03-14T10:25:32.358Z,68.30
2023-03-14T10:28:08.178Z,69.52
2023-03-14T10:30:47.135Z,70.72
2023-03-14T10:33:25.656Z,71.82
2023-03-14T10:36:01.383Z,72.26
2023-03-14T10:38:39.579Z,72.70
2023-03-14T10:41:22.770Z,73.12
2023-03-14T10:43:59.018Z,73.71
2023-03-14T10:46:39.339Z,73.90
2023-03-14T10:49:37.113Z,74.07
2023-03-14T10:52:35.739Z,73.65
2023-03-14T10:55:03.926Z,73.33
2023-03-14T10:57:41.541Z,73.45
2023-03-14T11:00:18.122Z,73.43
2023-03-14T11:03:07.492Z,72.34
2023-03-14T11:05:44.636Z,71.48
2023-03-14T11:08:21.720Z,70.87
2023-03-14T11:10:58.549Z,69.81
2023-03-14T11:13:37.869Z,70.39
2023-03-14T11:16:14.783Z,69.57
2023-03-14T11:19:19.240Z,69.12
2023-03-14T11:21:56.820Z,68.87
2023-03-14T11:24:44.714Z,67.76
2023-03-14T11:27:23.245Z,67.45
2023-03-14T11:30:02.881Z,66.51
2023-03-14T11:32:46.531Z,66.70
2023-03-14T11:35:24.998Z,65.64
2023-03-14T11:38:04.351Z,65.42
2023-03-14T11:40:36.697Z,65.84
2023-03-14T11:43:14.890Z,65.32
2023-03-14T11:45:50.695Z,63.75
2023-03-14T11:48:36.486Z,63.98
2023-03-14T11:51:13.633Z,63.55
2023-03-14T11:53:55.820Z,63.17
2023-03-14T11:56:38.140Z,63.64
2023-03-14T11:59:15.458Z,63.68
2023-03-14T12:01:59.363Z,63.62
2023-03-14T12:04:55.308Z,63.26
2023-03-14T12:07:36.455Z,63.50
2023-03-14T12:10:10.910Z,63.94
2023-03-14T12:12:44.722Z,63.93
2023-03-14T12:15:23.965Z,63.23
2023-03-14T12:17:59.335Z,63.39
2023-03-14T12:20:32.909Z,62.12
2023-03-14T12:23:14.478Z,62.20
2023-03-14T12:25:46.439Z,63.49
2023-03-14T12:28:24.183Z,63.77
2023-03-14T12:30:57.444Z,62.98
2023-03-14T12:33:36.150Z,62.71
2023-03-14T12:36:51.813Z,62.64
2023-03-14T12:39:39.295Z,62.32
2023-03-14T12:42:14.973Z,63.19
2023-03-14T12:44:51.111Z,63.48
2023-03-14T12:48:00.166Z,63.29
2023-03-14T12:50:42.734Z,64.12
2023-03-14T12:54:03.984Z,65.03
2023-03-14T12:57:02.792Z,64.73
2023-03-14T12:59:43.701Z,63.57
2023-03-14T13:02:29.800Z,63.84
2023-03-14T13:05:13.777Z,64.63
2023-03-14T13:08:12.330Z,64.47
2023-03-14T13:10:50.133Z,63.73
2023-03-14T13:13:25.117Z,63.29
2023-03-14T13:16:01.446Z,63.64
2023-03-14T13:21:27.628Z,62.80
2023-03-14T13:24:06.110Z,61.88
2023-03-14T13:26:43.522Z,61.95
2023-03-14T13:29:21.973Z,62.10
2023-03-14T13:31:58.585Z,60.89
2023-03-14T13:34:38.168Z,60.79
2023-03-14T13:37:21.157Z,60.20
2023-03-14T13:39:56.683Z,59.84
2023-03-14T13:42:32.017Z,60.09
2023-03-14T13:45:13.237Z,59.52
2023-03-14T13:47:49.399Z,59.24
2023-03-14T13:50:22.840Z,59.15
2023-03-14T13:53:00.272Z,58.35
2023-03-14T13:58:24.662Z,58.38
2023-03-14T14:01:04.761Z,57.93
2023-03-14T14:03:42.866Z,58.42
2023-03-14T14:06:28.928Z,57.46
2023-03-14T14:09:14.527Z,58.17
2023-03-14T14:12:07.410Z,58.45
2023-03-14T14:14:28.887Z,58.26
2023-03-14T14:17:05.468Z,56.80
2023-03-14T14:19:43.729Z,56.17
2023-03-14T14:22:17.407Z,58.03
2023-03-14T14:24:53.048Z,56.46
2023-03-14T14:27:33.201Z,56.21
2023-03-14T14:30:28.348Z,55.80
2023-03-14T14:33:21.283Z,55.68
2023-03-14T14:35:59.580Z,56.88
2023-03-14T14:38:35.934Z,56.27
2023-03-14T14:41:10.524Z,55.16
2023-03-14T14:43:47.026Z,55.19
2023-03-14T14:49:17.579Z,55.98
2023-03-14T14:51:54.010Z,55.14
2023-03-14T14:54:42.418Z,54.88
2023-03-14T14:57:23.063Z,54.55
2023-03-14T15:00:01.484Z,54.32
2023-03-14T15:02:46.687Z,54.82
2023-03-14T15:05:23.681Z,53.97
2023-03-14T15:07:58.805Z,54.75
2023-03-14T15:10:33.817Z,54.25
2023-03-14T15:13:08.422Z,54.64
2023-03-14T15:15:41.873Z,55.02
2023-03-14T15:18:20.617Z,54.45
2023-03-14T15:20:55.420Z,54.28
2023-03-14T15:23:28.549Z,54.13
2023-03-14T15:26:20.328Z,54.67
2023-03-14T15:28:59.008Z,54.74
2023-03-14T15:31:32.187Z,54.74
2023-03-14T15:34:05.805Z,54.03
2023-03-14T15:36:45.598Z,53.97
2023-03-14T15:39:31.691Z,54.28
2023-03-14T15:42:24.449Z,54.09
2023-03-14T15:44:59.347Z,53.51
2023-03-14T15:47:34.673Z,53.61
2023-03-14T15:50:10.855Z,53.82
2023-03-14T15:52:52.131Z,53.40
2023-03-14T15:58:28.493Z,54.10
2023-03-14T16:01:12.694Z,53.53
2023-03-14T16:03:50.027Z,53.84
2023-03-14T16:06:26.669Z,53.23
2023-03-14T16:09:01.398Z,53.32
2023-03-14T16:11:36.174Z,53.26
2023-03-14T16:14:09.702Z,53.41
2023-03-14T16:16:43.251Z,54.04
2023-03-14T16:19:16.444Z,53.75
2023-03-14T16:21:53.536Z,53.70
2023-03-14T16:24:31.514Z,53.48
2023-03-14T16:27:08.454Z,53.17
2023-03-14T16:29:50.161Z,53.46
2023-03-14T16:32:26.214Z,53.85
2023-03-14T16:35:01.448Z,53.44
2023-03-14T16:37:34.952Z,53.50
2023-03-14T16:40:13.035Z,52.91
2023-03-14T16:43:14.582Z,52.66
2023-03-14T16:45:24.836Z,52.97
2023-03-14T16:47:58.214Z,53.02
2023-03-14T16:50:37.913Z,52.56
2023-03-14T16:53:16.592Z,52.58
2023-03-14T16:55:54.434Z,53.34
2023-03-14T16:58:27.989Z,53.64
2023-03-14T17:01:03.652Z,52.76
2023-03-14T17:03:37.102Z,52.75
2023-03-14T17:06:13.515Z,53.11
2023-03-14T17:09:04.205Z,53.27
2023-03-14T17:17:55.568Z,53.51
2023-03-14T17:20:30.891Z,52.73
2023-03-14T17:23:04.189Z,52.50
2023-03-14T17:25:40.422Z,52.69
2023-03-14T17:31:04.432Z,52.76
2023-03-14T17:33:47.795Z,52.55
2023-03-14T17:36:24.897Z,52.42
2023-03-14T17:38:58.638Z,52.58
2023-03-14T17:41:31.883Z,52.39
2023-03-14T17:44:06.788Z,52.14
2023-03-14T17:46:42.391Z,52.31
2023-03-14T17:49:15.545Z,52.47
2023-03-14T17:51:54.394Z,52.94
2023-03-14T17:54:27.785Z,52.98
2023-03-14T17:57:00.965Z,52.97
2023-03-14T17:59:34.532Z,52.87
2023-03-14T18:02:08.530Z,53.00
2023-03-14T18:04:41.826Z,52.57
2023-03-14T18:07:15.282Z,52.46
2023-03-14T18:09:52.124Z,52.11
2023-03-14T18:12:28.842Z,52.46
2023-03-14T18:15:06.405Z,52.21
2023-03-14T18:17:43.947Z,52.24
2023-03-14T18:42:26.197Z,52.67
2023-03-14T18:44:59.475Z,52.55
2023-03-14T18:47:36.223Z,52.53
2023-03-14T18:50:13.698Z,52.29
2023-03-14T18:52:48.389Z,52.45
2023-03-14T18:55:22.803Z,52.11
2023-03-14T18:57:55.885Z,52.24
2023-03-14T19:00:30.800Z,52.21
2023-03-14T19:03:04.424Z,52.29
2023-03-14T19:05:39.515Z,52.34
2023-03-14T19:08:32.999Z,52.12
2023-03-14T19:11:08.097Z,51.91
2023-03-14T19:13:42.409Z,51.51
2023-03-14T19:16:17.108Z,51.56
2023-03-14T19:18:54.463Z,51.55
2023-03-14T19:21:32.744Z,51.27
2023-03-14T19:24:07.304Z,51.05
2023-03-14T19:26:40.559Z,51.41
2023-03-14T19:29:13.868Z,51.24
2023-03-14T19:31:47.305Z,50.90
2023-03-14T19:34:21.338Z,50.67
2023-03-14T19:36:55.014Z,50.77
2023-03-14T19:39:28.437Z,50.46
2023-03-14T19:42:03.275Z,49.97
2023-03-14T19:44:36.482Z,50.21
2023-03-14T19:47:09.611Z,50.29
2023-03-14T19:49:42.949Z,50.16
2023-03-14T19:52:18.341Z,50.00
2023-03-14T19:54:54.935Z,50.24
2023-03-14T19:57:28.700Z,49.91
2023-03-14T20:00:05.153Z,49.71
2023-03-14T20:02:42.573Z,50.02
2023-03-14T20:05:19.776Z,50.06
2023-03-14T20:07:54.301Z,50.13
2023-03-14T20:10:27.593Z,50.14
2023-03-14T20:15:49.155Z,49.86
2023-03-14T20:18:24.132Z,49.69
2023-03-14T20:20:57.359Z,50.09
2023-03-14T20:23:30.930Z,49.53
2023-03-14T20:26:04.776Z,49.55
2023-03-14T20:28:42.053Z,49.77
2023-03-14T20:31:16.211Z,49.69
2023-03-14T20:33:51.425Z,49.61
2023-03-14T20:36:25.312Z,49.36
2023-03-14T20:38:58.544Z,49.25
2023-03-14T20:41:31.876Z,49.88
2023-03-14T20:44:05.259Z,49.77
2023-03-14T20:46:38.526Z,49.88
2023-03-14T20:49:11.983Z,49.31
2023-03-14T20:51:57.682Z,49.45
2023-03-14T20:54:39.624Z,49.14
2023-03-14T20:57:15.591Z,49.54
2023-03-14T20:59:48.799Z,49.55
2023-03-14T21:02:22.067Z,49.27
2023-03-14T21:04:56.938Z,48.93
2023-03-14T21:07:34.433Z,49.25
2023-03-14T21:10:11.336Z,48.87
2023-03-14T21:12:44.629Z,48.60
2023-03-14T21:15:18.296Z,48.43
2023-03-14T21:17:53.776Z,48.34
2023-03-14T21:20:26.982Z,48.46
2023-03-14T21:23:00.673Z,48.45
2023-03-14T21:25:34.752Z,48.76
2023-03-14T21:28:08.089Z,48.25
2023-03-14T21:30:41.404Z,48.65
2023-03-14T21:33:15.759Z,48.60
2023-03-14T21:35:49.685Z,48.84
2023-03-14T21:38:23.166Z,48.36
2023-03-14T21:41:00.016Z,48.57
2023-03-14T21:43:33.833Z,48.49
2023-03-14T21:46:07.295Z,47.93
2023-03-14T21:48:40.591Z,47.75
2023-03-14T21:51:13.958Z,47.82
2023-03-14T21:53:47.103Z,47.72
2023-03-14T21:56:20.445Z,47.96
2023-03-14T21:58:55.762Z,47.80
2023-03-14T22:01:29.058Z,47.59
2023-03-14T22:04:02.565Z,47.98
2023-03-14T22:06:35.862Z,47.87
2023-03-14T22:09:09.152Z,47.95
2023-03-14T22:11:45.045Z,47.84
2023-03-14T22:14:18.387Z,48.08
2023-03-14T22:16:51.770Z,47.66
2023-03-14T22:19:25.040Z,47.61
2023-03-14T22:21:58.396Z,47.80
2023-03-14T22:24:31.675Z,47.41
2023-03-14T22:27:04.969Z,47.04
2023-03-14T22:29:38.484Z,47.04
2023-03-14T22:32:13.043Z,47.43
2023-03-14T22:34:46.743Z,47.53
2023-03-14T22:37:20.508Z,47.57
2023-03-14T22:39:54.049Z,47.22
2023-03-14T22:42:27.604Z,46.85
2023-03-14T22:45:01.112Z,47.00
2023-03-14T22:47:34.696Z,47.07
2023-03-14T22:50:10.116Z,46.78
2023-03-14T22:52:43.556Z,46.93
2023-03-14T22:55:17.158Z,47.38
2023-03-14T22:57:53.750Z,47.59
2023-03-14T23:00:28.096Z,46.84
2023-03-14T23:03:01.925Z,46.88
2023-03-14T23:05:35.359Z,46.92
2023-03-14T23:08:09.031Z,47.08
2023-03-14T23:10:43.360Z,47.26
2023-03-14T23:13:16.789Z,47.12
2023-03-14T23:15:50.480Z,46.99
2023-03-14T23:18:25.600Z,46.91
2023-03-14T23:21:10.001Z,47.06
2023-03-14T23:23:46.770Z,47.29
2023-03-14T23:26:23.449Z,47.81
2023-03-14T23:28:57.602Z,47.59
2023-03-14T23:31:32.514Z,47.50
2023-03-14T23:34:05.994Z,47.54
2023-03-14T23:36:39.610Z,47.84
2023-03-14T23:39:13.790Z,47.96
2023-03-14T23:41:47.353Z,47.96
2023-03-14T23:44:20.769Z,48.06
2023-03-14T23:46:54.241Z,47.99
2023-03-14T23:49:27.467Z,47.79
2023-03-14T23:52:00.896Z,47.99
2023-03-14T23:54:34.277Z,47.95
2023-03-14T23:57:10.374Z,47.93
2023-03-14T23:59:43.877Z,47.91
